sensor_id;sensor_type;location;lat;lon;timestamp;P1;durP1;ratioP1;P2;durP2;ratioP2
48897;SDS011;34713;50.038;20.000;2023-04-03T00:00:50;3.00;;;2.50;;
48897;SDS011;34713;50.038;20.000;2023-04-03T00:03:18;4.60;;;3.00;;
48897;SDS011;34713;50.038;20.000;2023-04-03T00:06:07;2.60;;;2.30;;
48897;SDS011;34713;50.038;20.000;2023-04-03T00:08:45;3.50;;;2.40;;
48897;SDS011;34713;50.038;20.000;2023-04-03T00:14:39;3.00;;;2.40;;
48897;SDS011;34713;50.038;20.000;2023-04-03T00:17:20;8.00;;;3.70;;
48897;SDS011;34713;50.038;20.000;2023-04-03T00:20:06;2.90;;;2.20;;
48897;SDS011;34713;50.038;20.000;2023-04-03T00:22:33;3.30;;;2.30;;
48897;SDS011;34713;50.038;20.000;2023-04-03T00:24:59;3.50;;;2.70;;
48897;SDS011;34713;50.038;20.000;2023-04-03T00:27:29;3.90;;;2.60;;
48897;SDS011;34713;50.038;20.000;2023-04-03T00:29:56;3.80;;;2.50;;
48897;SDS011;34713;50.038;20.000;2023-04-03T00:32:22;3.30;;;2.50;;
48897;SDS011;34713;50.038;20.000;2023-04-03T00:34:55;3.00;;;2.40;;
48897;SDS011;34713;50.038;20.000;2023-04-03T00:37:22;4.10;;;2.60;;
48897;SDS011;34713;50.038;20.000;2023-04-03T00:39:48;2.80;;;2.30;;
48897;SDS011;34713;50.038;20.000;2023-04-03T00:42:18;3.10;;;2.60;;
48897;SDS011;34713;50.038;20.000;2023-04-03T00:45:36;3.10;;;2.50;;
48897;SDS011;34713;50.038;20.000;2023-04-03T00:48:05;4.40;;;3.00;;
48897;SDS011;34713;50.038;20.000;2023-04-03T00:53:58;3.70;;;2.60;;
48897;SDS011;34713;50.038;20.000;2023-04-03T00:56:26;4.40;;;2.90;;
48897;SDS011;34713;50.038;20.000;2023-04-03T00:59:15;4.30;;;2.70;;
48897;SDS011;34713;50.038;20.000;2023-04-03T01:01:55;3.40;;;2.60;;
48897;SDS011;34713;50.038;20.000;2023-04-03T01:04:35;3.40;;;2.30;;
48897;SDS011;34713;50.038;20.000;2023-04-03T01:09:59;3.40;;;2.60;;
48897;SDS011;34713;50.038;20.000;2023-04-03T01:12:32;2.50;;;2.10;;
48897;SDS011;34713;50.038;20.000;2023-04-03T01:15:22;2.60;;;2.10;;
48897;SDS011;34713;50.038;20.000;2023-04-03T01:25:00;2.80;;;2.20;;
48897;SDS011;34713;50.038;20.000;2023-04-03T01:27:57;3.00;;;2.20;;
48897;SDS011;34713;50.038;20.000;2023-04-03T01:33:53;2.50;;;2.10;;
48897;SDS011;34713;50.038;20.000;2023-04-03T01:36:22;3.00;;;2.20;;
48897;SDS011;34713;50.038;20.000;2023-04-03T01:38:51;3.30;;;2.30;;
48897;SDS011;34713;50.038;20.000;2023-04-03T01:41:21;2.70;;;2.10;;
48897;SDS011;34713;50.038;20.000;2023-04-03T01:43:55;3.00;;;2.30;;
48897;SDS011;34713;50.038;20.000;2023-04-03T01:46:42;3.00;;;2.30;;
48897;SDS011;34713;50.038;20.000;2023-04-03T01:49:12;3.80;;;2.50;;
48897;SDS011;34713;50.038;20.000;2023-04-03T01:51:47;3.20;;;2.20;;
48897;SDS011;34713;50.038;20.000;2023-04-03T01:54:14;2.90;;;2.30;;
48897;SDS011;34713;50.038;20.000;2023-04-03T01:56:44;3.00;;;2.50;;
48897;SDS011;34713;50.038;20.000;2023-04-03T02:02:31;4.40;;;2.50;;
48897;SDS011;34713;50.038;20.000;2023-04-03T02:05:02;4.00;;;2.20;;
48897;SDS011;34713;50.038;20.000;2023-04-03T02:07:29;4.50;;;2.40;;
48897;SDS011;34713;50.038;20.000;2023-04-03T02:10:36;3.00;;;2.40;;
48897;SDS011;34713;50.038;20.000;2023-04-03T02:22:18;2.70;;;2.10;;
48897;SDS011;34713;50.038;20.000;2023-04-03T02:24:49;3.30;;;2.20;;
48897;SDS011;34713;50.038;20.000;2023-04-03T02:27:19;2.90;;;2.50;;
48897;SDS011;34713;50.038;20.000;2023-04-03T02:30:26;5.80;;;2.50;;
48897;SDS011;34713;50.038;20.000;2023-04-03T02:33:16;3.20;;;2.20;;
48897;SDS011;34713;50.038;20.000;2023-04-03T02:35:56;3.20;;;2.30;;
48897;SDS011;34713;50.038;20.000;2023-04-03T02:38:26;2.20;;;1.90;;
48897;SDS011;34713;50.038;20.000;2023-04-03T02:44:11;3.30;;;1.80;;
48897;SDS011;34713;50.038;20.000;2023-04-03T02:46:38;2.80;;;2.20;;
48897;SDS011;34713;50.038;20.000;2023-04-03T02:49:26;2.10;;;1.90;;
48897;SDS011;34713;50.038;20.000;2023-04-03T02:52:13;2.80;;;2.20;;
48897;SDS011;34713;50.038;20.000;2023-04-03T02:54:40;2.90;;;1.90;;
48897;SDS011;34713;50.038;20.000;2023-04-03T02:57:07;3.40;;;2.30;;
48897;SDS011;34713;50.038;20.000;2023-04-03T02:59:35;3.10;;;1.90;;
48897;SDS011;34713;50.038;20.000;2023-04-03T03:02:03;2.80;;;1.80;;
48897;SDS011;34713;50.038;20.000;2023-04-03T03:04:30;2.70;;;2.10;;
48897;SDS011;34713;50.038;20.000;2023-04-03T03:06:59;2.40;;;1.50;;
48897;SDS011;34713;50.038;20.000;2023-04-03T03:09:28;3.00;;;2.20;;
48897;SDS011;34713;50.038;20.000;2023-04-03T03:11:56;2.20;;;1.70;;
48897;SDS011;34713;50.038;20.000;2023-04-03T03:14:25;2.70;;;1.80;;
48897;SDS011;34713;50.038;20.000;2023-04-03T03:17:04;4.00;;;1.90;;
48897;SDS011;34713;50.038;20.000;2023-04-03T03:19:40;1.80;;;1.30;;
48897;SDS011;34713;50.038;20.000;2023-04-03T03:22:10;5.20;;;1.70;;
48897;SDS011;34713;50.038;20.000;2023-04-03T03:24:37;3.40;;;1.90;;
48897;SDS011;34713;50.038;20.000;2023-04-03T03:27:03;2.60;;;1.60;;
48897;SDS011;34713;50.038;20.000;2023-04-03T03:29:30;2.70;;;1.70;;
48897;SDS011;34713;50.038;20.000;2023-04-03T03:31:59;2.10;;;1.50;;
48897;SDS011;34713;50.038;20.000;2023-04-03T03:34:26;2.40;;;1.70;;
48897;SDS011;34713;50.038;20.000;2023-04-03T03:40:26;4.10;;;1.80;;
48897;SDS011;34713;50.038;20.000;2023-04-03T03:43:03;2.50;;;1.70;;
48897;SDS011;34713;50.038;20.000;2023-04-03T03:46:14;2.80;;;1.60;;
48897;SDS011;34713;50.038;20.000;2023-04-03T03:48:54;3.30;;;2.10;;
48897;SDS011;34713;50.038;20.000;2023-04-03T03:51:21;2.50;;;1.90;;
48897;SDS011;34713;50.038;20.000;2023-04-03T03:53:59;2.60;;;1.70;;
48897;SDS011;34713;50.038;20.000;2023-04-03T03:56:49;2.60;;;1.60;;
48897;SDS011;34713;50.038;20.000;2023-04-03T04:00:17;2.20;;;1.40;;
48897;SDS011;34713;50.038;20.000;2023-04-03T04:03:38;3.40;;;1.80;;
48897;SDS011;34713;50.038;20.000;2023-04-03T04:06:27;2.30;;;1.60;;
48897;SDS011;34713;50.038;20.000;2023-04-03T04:09:28;4.20;;;1.80;;
48897;SDS011;34713;50.038;20.000;2023-04-03T04:15:52;2.50;;;1.70;;
48897;SDS011;34713;50.038;20.000;2023-04-03T04:21:49;2.70;;;2.00;;
48897;SDS011;34713;50.038;20.000;2023-04-03T04:24:47;3.50;;;1.90;;
48897;SDS011;34713;50.038;20.000;2023-04-03T04:29:50;2.40;;;1.70;;
48897;SDS011;34713;50.038;20.000;2023-04-03T04:32:29;2.50;;;1.70;;
48897;SDS011;34713;50.038;20.000;2023-04-03T04:35:03;4.20;;;1.80;;
48897;SDS011;34713;50.038;20.000;2023-04-03T04:37:31;2.90;;;1.80;;
48897;SDS011;34713;50.038;20.000;2023-04-03T04:40:02;2.10;;;1.70;;
48897;SDS011;34713;50.038;20.000;2023-04-03T04:42:41;2.70;;;1.70;;
48897;SDS011;34713;50.038;20.000;2023-04-03T04:51:21;3.40;;;1.60;;
48897;SDS011;34713;50.038;20.000;2023-04-03T04:54:08;2.90;;;2.20;;
48897;SDS011;34713;50.038;20.000;2023-04-03T04:56:44;2.80;;;1.90;;
48897;SDS011;34713;50.038;20.000;2023-04-03T04:59:34;3.30;;;2.00;;
48897;SDS011;34713;50.038;20.000;2023-04-03T05:02:11;5.60;;;2.70;;
48897;SDS011;34713;50.038;20.000;2023-04-03T05:04:37;2.70;;;1.80;;
48897;SDS011;34713;50.038;20.000;2023-04-03T05:07:10;2.80;;;2.10;;
48897;SDS011;34713;50.038;20.000;2023-04-03T05:09:42;3.00;;;2.20;;
48897;SDS011;34713;50.038;20.000;2023-04-03T05:12:12;3.30;;;2.20;;
48897;SDS011;34713;50.038;20.000;2023-04-03T05:14:44;5.70;;;2.20;;
48897;SDS011;34713;50.038;20.000;2023-04-03T05:17:13;2.60;;;2.10;;
48897;SDS011;34713;50.038;20.000;2023-04-03T05:20:03;3.00;;;1.90;;
48897;SDS011;34713;50.038;20.000;2023-04-03T05:23:39;3.10;;;2.10;;
48897;SDS011;34713;50.038;20.000;2023-04-03T05:26:09;3.10;;;2.20;;
48897;SDS011;34713;50.038;20.000;2023-04-03T05:28:36;3.90;;;2.20;;
48897;SDS011;34713;50.038;20.000;2023-04-03T05:31:13;3.00;;;2.20;;
48897;SDS011;34713;50.038;20.000;2023-04-03T05:33:43;2.80;;;2.10;;
48897;SDS011;34713;50.038;20.000;2023-04-03T05:36:13;4.00;;;2.20;;
48897;SDS011;34713;50.038;20.000;2023-04-03T05:41:41;5.80;;;2.60;;
48897;SDS011;34713;50.038;20.000;2023-04-03T05:44:12;4.60;;;2.20;;
48897;SDS011;34713;50.038;20.000;2023-04-03T05:46:42;2.90;;;2.30;;
48897;SDS011;34713;50.038;20.000;2023-04-03T05:49:16;5.40;;;2.50;;
48897;SDS011;34713;50.038;20.000;2023-04-03T05:55:25;4.80;;;2.00;;
48897;SDS011;34713;50.038;20.000;2023-04-03T05:58:03;5.00;;;2.20;;
48897;SDS011;34713;50.038;20.000;2023-04-03T06:00:48;3.90;;;2.50;;
48897;SDS011;34713;50.038;20.000;2023-04-03T06:06:17;4.00;;;2.60;;
48897;SDS011;34713;50.038;20.000;2023-04-03T06:09:08;4.50;;;2.70;;
48897;SDS011;34713;50.038;20.000;2023-04-03T06:23:34;5.10;;;2.60;;
48897;SDS011;34713;50.038;20.000;2023-04-03T06:29:49;6.00;;;2.40;;
48897;SDS011;34713;50.038;20.000;2023-04-03T06:32:30;4.30;;;2.20;;
48897;SDS011;34713;50.038;20.000;2023-04-03T06:34:57;5.30;;;2.20;;
48897;SDS011;34713;50.038;20.000;2023-04-03T06:40:52;4.50;;;2.50;;
48897;SDS011;34713;50.038;20.000;2023-04-03T06:43:19;5.60;;;2.10;;
48897;SDS011;34713;50.038;20.000;2023-04-03T06:45:49;5.70;;;2.30;;
48897;SDS011;34713;50.038;20.000;2023-04-03T06:55:03;5.40;;;2.10;;
48897;SDS011;34713;50.038;20.000;2023-04-03T06:57:50;4.70;;;2.20;;
48897;SDS011;34713;50.038;20.000;2023-04-03T07:00:39;7.50;;;2.50;;
48897;SDS011;34713;50.038;20.000;2023-04-03T07:06:32;6.90;;;2.20;;
48897;SDS011;34713;50.038;20.000;2023-04-03T07:12:16;4.80;;;1.80;;
48897;SDS011;34713;50.038;20.000;2023-04-03T07:18:35;5.80;;;2.60;;
48897;SDS011;34713;50.038;20.000;2023-04-03T07:21:17;4.80;;;2.10;;
48897;SDS011;34713;50.038;20.000;2023-04-03T07:23:52;18.50;;;3.00;;
48897;SDS011;34713;50.038;20.000;2023-04-03T07:26:19;4.60;;;2.00;;
48897;SDS011;34713;50.038;20.000;2023-04-03T07:28:51;6.10;;;2.50;;
48897;SDS011;34713;50.038;20.000;2023-04-03T07:31:38;3.80;;;2.10;;
48897;SDS011;34713;50.038;20.000;2023-04-03T07:34:08;6.50;;;2.20;;
48897;SDS011;34713;50.038;20.000;2023-04-03T07:40:02;3.30;;;2.00;;
48897;SDS011;34713;50.038;20.000;2023-04-03T07:49:35;3.30;;;1.80;;
48897;SDS011;34713;50.038;20.000;2023-04-03T07:55:20;4.30;;;1.90;;
48897;SDS011;34713;50.038;20.000;2023-04-03T08:07:57;3.10;;;1.70;;
48897;SDS011;34713;50.038;20.000;2023-04-03T08:14:01;3.90;;;2.00;;
48897;SDS011;34713;50.038;20.000;2023-04-03T08:16:28;6.30;;;2.50;;
48897;SDS011;34713;50.038;20.000;2023-04-03T08:22:34;3.90;;;2.30;;
48897;SDS011;34713;50.038;20.000;2023-04-03T08:25:23;5.00;;;2.30;;
48897;SDS011;34713;50.038;20.000;2023-04-03T08:28:14;5.30;;;2.10;;
48897;SDS011;34713;50.038;20.000;2023-04-03T08:31:23;6.50;;;2.80;;
48897;SDS011;34713;50.038;20.000;2023-04-03T08:43:33;4.10;;;2.20;;
48897;SDS011;34713;50.038;20.000;2023-04-03T08:46:06;5.80;;;2.20;;
48897;SDS011;34713;50.038;20.000;2023-04-03T08:57:47;5.20;;;2.20;;
48897;SDS011;34713;50.038;20.000;2023-04-03T09:00:20;6.20;;;2.20;;
48897;SDS011;34713;50.038;20.000;2023-04-03T09:05:57;6.50;;;2.30;;
48897;SDS011;34713;50.038;20.000;2023-04-03T09:12:46;4.60;;;2.00;;
48897;SDS011;34713;50.038;20.000;2023-04-03T09:15:46;4.40;;;2.00;;
48897;SDS011;34713;50.038;20.000;2023-04-03T09:21:20;6.10;;;2.00;;
48897;SDS011;34713;50.038;20.000;2023-04-03T09:24:12;4.10;;;2.20;;
48897;SDS011;34713;50.038;20.000;2023-04-03T09:26:56;4.40;;;2.20;;
48897;SDS011;34713;50.038;20.000;2023-04-03T09:29:47;4.00;;;2.40;;
48897;SDS011;34713;50.038;20.000;2023-04-03T09:32:32;3.30;;;1.90;;
48897;SDS011;34713;50.038;20.000;2023-04-03T09:35:29;5.70;;;2.10;;
48897;SDS011;34713;50.038;20.000;2023-04-03T09:38:29;5.00;;;2.50;;
48897;SDS011;34713;50.038;20.000;2023-04-03T09:47:36;5.60;;;2.40;;
48897;SDS011;34713;50.038;20.000;2023-04-03T09:53:41;10.90;;;2.10;;
48897;SDS011;34713;50.038;20.000;2023-04-03T09:59:05;3.10;;;1.80;;
48897;SDS011;34713;50.038;20.000;2023-04-03T10:01:35;6.40;;;2.30;;
48897;SDS011;34713;50.038;20.000;2023-04-03T10:06:58;3.50;;;2.00;;
48897;SDS011;34713;50.038;20.000;2023-04-03T10:09:35;7.50;;;2.10;;
48897;SDS011;34713;50.038;20.000;2023-04-03T10:15:42;3.60;;;1.90;;
48897;SDS011;34713;50.038;20.000;2023-04-03T10:18:32;5.30;;;2.20;;
48897;SDS011;34713;50.038;20.000;2023-04-03T10:30:21;5.60;;;1.90;;
48897;SDS011;34713;50.038;20.000;2023-04-03T10:33:01;6.00;;;2.50;;
48897;SDS011;34713;50.038;20.000;2023-04-03T10:58:18;5.60;;;1.90;;
48897;SDS011;34713;50.038;20.000;2023-04-03T11:01:13;4.00;;;2.10;;
48897;SDS011;34713;50.038;20.000;2023-04-03T11:03:44;5.10;;;2.60;;
48897;SDS011;34713;50.038;20.000;2023-04-03T11:12:52;4.40;;;2.40;;
48897;SDS011;34713;50.038;20.000;2023-04-03T11:15:27;4.70;;;2.30;;
48897;SDS011;34713;50.038;20.000;2023-04-03T11:24:36;6.20;;;2.30;;
48897;SDS011;34713;50.038;20.000;2023-04-03T11:37:00;6.50;;;2.60;;
48897;SDS011;34713;50.038;20.000;2023-04-03T11:42:16;4.80;;;2.50;;
48897;SDS011;34713;50.038;20.000;2023-04-03T12:07:45;4.70;;;2.40;;
48897;SDS011;34713;50.038;20.000;2023-04-03T12:19:37;4.30;;;2.10;;
48897;SDS011;34713;50.038;20.000;2023-04-03T12:22:14;4.00;;;1.90;;
48897;SDS011;34713;50.038;20.000;2023-04-03T12:32:46;3.70;;;2.00;;
48897;SDS011;34713;50.038;20.000;2023-04-03T12:41:18;5.00;;;2.20;;
48897;SDS011;34713;50.038;20.000;2023-04-03T12:43:57;5.70;;;1.80;;
48897;SDS011;34713;50.038;20.000;2023-04-03T12:47:10;4.60;;;2.40;;
48897;SDS011;34713;50.038;20.000;2023-04-03T12:50:18;4.30;;;2.20;;
48897;SDS011;34713;50.038;20.000;2023-04-03T12:59:24;4.40;;;2.00;;
48897;SDS011;34713;50.038;20.000;2023-04-03T13:01:58;6.40;;;2.40;;
48897;SDS011;34713;50.038;20.000;2023-04-03T13:05:09;4.30;;;2.20;;
48897;SDS011;34713;50.038;20.000;2023-04-03T13:07:32;4.60;;;2.40;;
48897;SDS011;34713;50.038;20.000;2023-04-03T13:10:19;5.10;;;2.40;;
48897;SDS011;34713;50.038;20.000;2023-04-03T13:12:53;4.30;;;2.20;;
48897;SDS011;34713;50.038;20.000;2023-04-03T13:15:28;3.90;;;2.10;;
48897;SDS011;34713;50.038;20.000;2023-04-03T13:17:56;2.80;;;1.90;;
48897;SDS011;34713;50.038;20.000;2023-04-03T13:20:46;6.30;;;2.80;;
48897;SDS011;34713;50.038;20.000;2023-04-03T13:23:17;3.80;;;2.20;;
48897;SDS011;34713;50.038;20.000;2023-04-03T13:25:56;5.30;;;3.00;;
48897;SDS011;34713;50.038;20.000;2023-04-03T13:28:50;4.70;;;2.30;;
48897;SDS011;34713;50.038;20.000;2023-04-03T13:34:12;4.10;;;2.50;;
48897;SDS011;34713;50.038;20.000;2023-04-03T13:36:40;6.80;;;2.90;;
48897;SDS011;34713;50.038;20.000;2023-04-03T13:48:37;3.50;;;2.00;;
48897;SDS011;34713;50.038;20.000;2023-04-03T13:53:54;4.50;;;2.30;;
48897;SDS011;34713;50.038;20.000;2023-04-03T13:56:42;5.00;;;2.40;;
48897;SDS011;34713;50.038;20.000;2023-04-03T14:04:17;5.30;;;2.40;;
48897;SDS011;34713;50.038;20.000;2023-04-03T14:06:57;5.70;;;2.50;;
48897;SDS011;34713;50.038;20.000;2023-04-03T14:09:27;5.00;;;2.30;;
48897;SDS011;34713;50.038;20.000;2023-04-03T14:11:55;4.80;;;2.10;;
48897;SDS011;34713;50.038;20.000;2023-04-03T14:14:36;5.80;;;2.50;;
48897;SDS011;34713;50.038;20.000;2023-04-03T14:17:16;3.80;;;2.00;;
48897;SDS011;34713;50.038;20.000;2023-04-03T14:20:03;8.50;;;2.40;;
48897;SDS011;34713;50.038;20.000;2023-04-03T14:22:36;5.60;;;2.80;;
48897;SDS011;34713;50.038;20.000;2023-04-03T14:25:03;8.30;;;2.80;;
48897;SDS011;34713;50.038;20.000;2023-04-03T14:27:42;4.90;;;2.80;;
48897;SDS011;34713;50.038;20.000;2023-04-03T14:30:32;7.80;;;3.70;;
48897;SDS011;34713;50.038;20.000;2023-04-03T14:35:52;5.40;;;2.70;;
48897;SDS011;34713;50.038;20.000;2023-04-03T14:38:29;5.70;;;2.30;;
48897;SDS011;34713;50.038;20.000;2023-04-03T14:46:46;7.50;;;2.90;;
48897;SDS011;34713;50.038;20.000;2023-04-03T14:49:19;7.50;;;3.00;;
48897;SDS011;34713;50.038;20.000;2023-04-03T14:51:56;5.90;;;3.00;;
48897;SDS011;34713;50.038;20.000;2023-04-03T14:54:24;5.90;;;2.40;;
48897;SDS011;34713;50.038;20.000;2023-04-03T14:56:55;6.00;;;2.60;;
48897;SDS011;34713;50.038;20.000;2023-04-03T14:59:45;4.20;;;2.00;;
48897;SDS011;34713;50.038;20.000;2023-04-03T15:05:20;7.10;;;2.20;;
48897;SDS011;34713;50.038;20.000;2023-04-03T15:13:42;4.20;;;2.20;;
48897;SDS011;34713;50.038;20.000;2023-04-03T15:19:35;9.70;;;3.60;;
48897;SDS011;34713;50.038;20.000;2023-04-03T15:22:29;6.10;;;2.90;;
48897;SDS011;34713;50.038;20.000;2023-04-03T15:24:59;5.70;;;2.30;;
48897;SDS011;34713;50.038;20.000;2023-04-03T15:27:48;4.30;;;2.30;;
48897;SDS011;34713;50.038;20.000;2023-04-03T15:30:33;6.60;;;2.70;;
48897;SDS011;34713;50.038;20.000;2023-04-03T15:33:12;4.90;;;2.20;;
48897;SDS011;34713;50.038;20.000;2023-04-03T15:35:49;6.50;;;2.70;;
48897;SDS011;34713;50.038;20.000;2023-04-03T15:41:25;5.70;;;2.60;;
48897;SDS011;34713;50.038;20.000;2023-04-03T15:43:52;4.50;;;2.50;;
48897;SDS011;34713;50.038;20.000;2023-04-03T15:49:35;6.90;;;2.60;;
48897;SDS011;34713;50.038;20.000;2023-04-03T15:58:14;5.60;;;2.20;;
48897;SDS011;34713;50.038;20.000;2023-04-03T16:04:16;3.50;;;1.80;;
48897;SDS011;34713;50.038;20.000;2023-04-03T16:07:08;6.70;;;2.30;;
48897;SDS011;34713;50.038;20.000;2023-04-03T16:19:39;5.00;;;2.10;;
48897;SDS011;34713;50.038;20.000;2023-04-03T16:22:06;4.40;;;2.30;;
48897;SDS011;34713;50.038;20.000;2023-04-03T16:24:33;4.60;;;2.30;;
48897;SDS011;34713;50.038;20.000;2023-04-03T16:29:54;5.00;;;2.40;;
48897;SDS011;34713;50.038;20.000;2023-04-03T16:32:25;4.90;;;2.10;;
48897;SDS011;34713;50.038;20.000;2023-04-03T16:35:16;6.50;;;2.40;;
48897;SDS011;34713;50.038;20.000;2023-04-03T16:38:22;6.70;;;2.10;;
48897;SDS011;34713;50.038;20.000;2023-04-03T16:40:49;5.40;;;2.10;;
48897;SDS011;34713;50.038;20.000;2023-04-03T16:46:28;4.90;;;2.30;;
48897;SDS011;34713;50.038;20.000;2023-04-03T16:51:44;6.10;;;2.40;;
48897;SDS011;34713;50.038;20.000;2023-04-03T16:54:14;3.90;;;2.20;;
48897;SDS011;34713;50.038;20.000;2023-04-03T16:57:01;6.60;;;2.40;;
48897;SDS011;34713;50.038;20.000;2023-04-03T16:59:31;4.20;;;1.80;;
48897;SDS011;34713;50.038;20.000;2023-04-03T17:02:00;6.60;;;2.10;;
48897;SDS011;34713;50.038;20.000;2023-04-03T17:07:58;5.40;;;2.30;;
48897;SDS011;34713;50.038;20.000;2023-04-03T17:10:36;4.10;;;2.20;;
48897;SDS011;34713;50.038;20.000;2023-04-03T17:13:02;4.80;;;2.50;;
48897;SDS011;34713;50.038;20.000;2023-04-03T17:15:32;5.40;;;2.70;;
48897;SDS011;34713;50.038;20.000;2023-04-03T17:18:19;4.30;;;2.40;;
48897;SDS011;34713;50.038;20.000;2023-04-03T17:20:52;4.40;;;2.30;;
48897;SDS011;34713;50.038;20.000;2023-04-03T17:23:22;5.70;;;2.50;;
48897;SDS011;34713;50.038;20.000;2023-04-03T17:25:55;7.20;;;2.80;;
48897;SDS011;34713;50.038;20.000;2023-04-03T17:28:22;5.20;;;2.70;;
48897;SDS011;34713;50.038;20.000;2023-04-03T17:30:57;10.60;;;3.30;;
48897;SDS011;34713;50.038;20.000;2023-04-03T17:33:25;5.70;;;3.00;;
48897;SDS011;34713;50.038;20.000;2023-04-03T17:35:57;5.60;;;2.50;;
48897;SDS011;34713;50.038;20.000;2023-04-03T17:38:27;6.30;;;3.00;;
48897;SDS011;34713;50.038;20.000;2023-04-03T17:40:59;6.10;;;2.50;;
48897;SDS011;34713;50.038;20.000;2023-04-03T17:43:30;7.50;;;3.10;;
48897;SDS011;34713;50.038;20.000;2023-04-03T17:46:01;5.40;;;3.00;;
48897;SDS011;34713;50.038;20.000;2023-04-03T17:51:27;6.90;;;3.00;;
48897;SDS011;34713;50.038;20.000;2023-04-03T17:53:54;5.60;;;3.00;;
48897;SDS011;34713;50.038;20.000;2023-04-03T17:56:22;8.50;;;3.70;;
48897;SDS011;34713;50.038;20.000;2023-04-03T17:58:50;9.90;;;3.80;;
48897;SDS011;34713;50.038;20.000;2023-04-03T18:08:07;6.10;;;2.90;;
48897;SDS011;34713;50.038;20.000;2023-04-03T18:10:35;9.50;;;3.70;;
48897;SDS011;34713;50.038;20.000;2023-04-03T18:13:06;8.60;;;3.40;;
48897;SDS011;34713;50.038;20.000;2023-04-03T18:15:33;6.20;;;3.00;;
48897;SDS011;34713;50.038;20.000;2023-04-03T18:18:00;8.60;;;3.50;;
48897;SDS011;34713;50.038;20.000;2023-04-03T18:20:27;7.60;;;3.80;;
48897;SDS011;34713;50.038;20.000;2023-04-03T18:28:53;8.70;;;3.80;;
48897;SDS011;34713;50.038;20.000;2023-04-03T18:31:25;9.40;;;4.30;;
48897;SDS011;34713;50.038;20.000;2023-04-03T18:33:52;9.90;;;5.30;;
48897;SDS011;34713;50.038;20.000;2023-04-03T18:36:25;9.50;;;4.60;;
48897;SDS011;34713;50.038;20.000;2023-04-03T18:38:55;9.90;;;4.90;;
48897;SDS011;34713;50.038;20.000;2023-04-03T18:41:26;10.20;;;4.90;;
48897;SDS011;34713;50.038;20.000;2023-04-03T18:46:36;10.70;;;5.20;;
48897;SDS011;34713;50.038;20.000;2023-04-03T18:49:11;11.10;;;4.60;;
48897;SDS011;34713;50.038;20.000;2023-04-03T18:51:39;12.10;;;4.70;;
48897;SDS011;34713;50.038;20.000;2023-04-03T18:54:07;10.20;;;4.80;;
48897;SDS011;34713;50.038;20.000;2023-04-03T18:56:42;10.40;;;4.90;;
48897;SDS011;34713;50.038;20.000;2023-04-03T18:59:38;10.20;;;4.40;;
48897;SDS011;34713;50.038;20.000;2023-04-03T19:02:05;10.30;;;5.10;;
48897;SDS011;34713;50.038;20.000;2023-04-03T19:05:14;13.20;;;5.00;;
48897;SDS011;34713;50.038;20.000;2023-04-03T19:07:44;11.20;;;5.60;;
48897;SDS011;34713;50.038;20.000;2023-04-03T19:11:05;12.20;;;5.50;;
48897;SDS011;34713;50.038;20.000;2023-04-03T19:13:39;10.50;;;5.10;;
48897;SDS011;34713;50.038;20.000;2023-04-03T19:16:38;9.70;;;5.20;;
48897;SDS011;34713;50.038;20.000;2023-04-03T19:19:13;11.60;;;5.60;;
48897;SDS011;34713;50.038;20.000;2023-04-03T19:31:05;12.90;;;5.90;;
48897;SDS011;34713;50.038;20.000;2023-04-03T19:33:50;13.40;;;6.20;;
48897;SDS011;34713;50.038;20.000;2023-04-03T19:36:17;12.30;;;5.80;;
48897;SDS011;34713;50.038;20.000;2023-04-03T19:38:44;11.90;;;6.10;;
48897;SDS011;34713;50.038;20.000;2023-04-03T19:41:12;11.00;;;6.00;;
48897;SDS011;34713;50.038;20.000;2023-04-03T19:43:41;14.60;;;6.90;;
48897;SDS011;34713;50.038;20.000;2023-04-03T19:49:21;13.70;;;6.40;;
48897;SDS011;34713;50.038;20.000;2023-04-03T19:52:00;11.60;;;5.60;;
48897;SDS011;34713;50.038;20.000;2023-04-03T19:54:37;14.30;;;5.90;;
48897;SDS011;34713;50.038;20.000;2023-04-03T19:57:11;12.40;;;5.90;;
48897;SDS011;34713;50.038;20.000;2023-04-03T19:59:41;12.40;;;6.00;;
48897;SDS011;34713;50.038;20.000;2023-04-03T20:02:08;13.10;;;6.50;;
48897;SDS011;34713;50.038;20.000;2023-04-03T20:04:34;13.80;;;6.20;;
48897;SDS011;34713;50.038;20.000;2023-04-03T20:07:01;12.40;;;5.70;;
48897;SDS011;34713;50.038;20.000;2023-04-03T20:09:31;11.40;;;5.70;;
48897;SDS011;34713;50.038;20.000;2023-04-03T20:12:18;13.90;;;5.90;;
48897;SDS011;34713;50.038;20.000;2023-04-03T20:14:45;11.70;;;5.20;;
48897;SDS011;34713;50.038;20.000;2023-04-03T20:17:15;14.40;;;5.40;;
48897;SDS011;34713;50.038;20.000;2023-04-03T20:19:42;13.20;;;5.60;;
48897;SDS011;34713;50.038;20.000;2023-04-03T20:22:09;12.60;;;5.80;;
48897;SDS011;34713;50.038;20.000;2023-04-03T20:24:35;11.70;;;5.50;;
48897;SDS011;34713;50.038;20.000;2023-04-03T20:27:02;15.20;;;6.80;;
48897;SDS011;34713;50.038;20.000;2023-04-03T20:29:30;12.60;;;5.70;;
48897;SDS011;34713;50.038;20.000;2023-04-03T20:31:57;12.10;;;5.40;;
48897;SDS011;34713;50.038;20.000;2023-04-03T20:34:24;12.10;;;6.40;;
48897;SDS011;34713;50.038;20.000;2023-04-03T20:36:51;12.40;;;6.30;;
48897;SDS011;34713;50.038;20.000;2023-04-03T20:39:18;13.30;;;6.20;;
48897;SDS011;34713;50.038;20.000;2023-04-03T20:41:54;15.20;;;6.60;;
48897;SDS011;34713;50.038;20.000;2023-04-03T20:44:22;14.00;;;6.70;;
48897;SDS011;34713;50.038;20.000;2023-04-03T20:46:51;13.80;;;6.80;;
48897;SDS011;34713;50.038;20.000;2023-04-03T20:49:24;14.20;;;6.30;;
48897;SDS011;34713;50.038;20.000;2023-04-03T20:51:54;11.80;;;5.70;;
48897;SDS011;34713;50.038;20.000;2023-04-03T20:54:41;14.70;;;6.70;;
48897;SDS011;34713;50.038;20.000;2023-04-03T20:57:07;14.60;;;6.20;;
48897;SDS011;34713;50.038;20.000;2023-04-03T20:59:37;12.00;;;5.90;;
48897;SDS011;34713;50.038;20.000;2023-04-03T21:02:08;13.10;;;6.20;;
48897;SDS011;34713;50.038;20.000;2023-04-03T21:04:40;13.50;;;6.40;;
48897;SDS011;34713;50.038;20.000;2023-04-03T21:19:33;13.80;;;6.00;;
48897;SDS011;34713;50.038;20.000;2023-04-03T21:22:00;16.70;;;7.30;;
48897;SDS011;34713;50.038;20.000;2023-04-03T21:27:35;12.10;;;5.90;;
48897;SDS011;34713;50.038;20.000;2023-04-03T21:30:10;13.40;;;6.50;;
48897;SDS011;34713;50.038;20.000;2023-04-03T21:39:28;12.90;;;6.60;;
48897;SDS011;34713;50.038;20.000;2023-04-03T21:41:58;13.80;;;6.90;;
48897;SDS011;34713;50.038;20.000;2023-04-03T21:50:28;16.40;;;7.30;;
48897;SDS011;34713;50.038;20.000;2023-04-03T21:52:58;14.30;;;6.40;;
48897;SDS011;34713;50.038;20.000;2023-04-03T21:58:38;13.80;;;6.90;;
48897;SDS011;34713;50.038;20.000;2023-04-03T22:06:58;15.70;;;6.50;;
48897;SDS011;34713;50.038;20.000;2023-04-03T22:09:25;15.10;;;6.40;;
48897;SDS011;34713;50.038;20.000;2023-04-03T22:21:25;12.50;;;5.70;;
48897;SDS011;34713;50.038;20.000;2023-04-03T22:24:11;13.00;;;6.30;;
48897;SDS011;34713;50.038;20.000;2023-04-03T22:26:45;14.80;;;6.40;;
48897;SDS011;34713;50.038;20.000;2023-04-03T22:29:18;13.30;;;5.90;;
48897;SDS011;34713;50.038;20.000;2023-04-03T22:31:45;15.90;;;5.90;;
48897;SDS011;34713;50.038;20.000;2023-04-03T22:34:23;11.90;;;6.00;;
48897;SDS011;34713;50.038;20.000;2023-04-03T22:37:19;12.90;;;5.70;;
48897;SDS011;34713;50.038;20.000;2023-04-03T22:39:56;17.70;;;6.00;;
48897;SDS011;34713;50.038;20.000;2023-04-03T22:42:23;12.00;;;5.60;;
48897;SDS011;34713;50.038;20.000;2023-04-03T22:44:50;13.70;;;5.90;;
48897;SDS011;34713;50.038;20.000;2023-04-03T22:47:33;11.90;;;5.30;;